KSHD/SHD METAR and TAF weather

Enter ICAO airport designator
Station Type Date Time Source
KSHD METAR 2020/05/29 20:35 UTC NOAA

KSHD 292035Z AUTO 20010KT 10SM CLR 26/18 A2998 RMK AO2 T02580178


Station Type Date Time Source
KSHD Decoded METAR 2020/05/29 20:35 UTC NOAA

Staunton / Shenandoah, VA, United States (KSHD) 38-16N 078-54W
May 29, 2020 - 04:35 PM EDT / 2020.05.29 2035 UTC
Wind: from the SSW (200 degrees) at 12 MPH (10 KT):0
Visibility: 10 mile(s):0
Sky conditions: clear
Temperature: 78.4 F (25.8 C)
Dew Point: 64.0 F (17.8 C)
Relative Humidity: 61%
Pressure (altimeter): 29.98 in. Hg (1015 hPa)
ob: KSHD 292035Z AUTO 20010KT 10SM CLR 26/18 A2998 RMK AO2 T02580178
cycle: 20

Station Type Date Time Source
KSHD TAF UTC NOAA

Error!

Example: see airport list